sensor_id;sensor_type;location;lat;lon;timestamp;P1;durP1;ratioP1;P2;durP2;ratioP2
14342;SDS011;7255;53.596;9.960;2023-05-15T00:00:32;6.68;;;6.10;;
14342;SDS011;7255;53.596;9.960;2023-05-15T00:02:58;6.50;;;5.87;;
14342;SDS011;7255;53.596;9.960;2023-05-15T00:05:25;7.35;;;5.82;;
14342;SDS011;7255;53.596;9.960;2023-05-15T00:07:51;7.22;;;6.37;;
14342;SDS011;7255;53.596;9.960;2023-05-15T00:10:19;7.53;;;5.85;;
14342;SDS011;7255;53.596;9.960;2023-05-15T00:12:45;6.53;;;5.90;;
14342;SDS011;7255;53.596;9.960;2023-05-15T00:15:11;7.55;;;5.97;;
14342;SDS011;7255;53.596;9.960;2023-05-15T00:17:38;7.22;;;6.18;;
14342;SDS011;7255;53.596;9.960;2023-05-15T00:20:05;8.07;;;6.32;;
14342;SDS011;7255;53.596;9.960;2023-05-15T00:22:34;6.95;;;6.35;;
14342;SDS011;7255;53.596;9.960;2023-05-15T00:25:00;6.87;;;6.23;;
14342;SDS011;7255;53.596;9.960;2023-05-15T00:27:28;6.68;;;6.05;;
14342;SDS011;7255;53.596;9.960;2023-05-15T00:29:54;7.23;;;6.17;;
14342;SDS011;7255;53.596;9.960;2023-05-15T00:32:20;8.05;;;6.53;;
14342;SDS011;7255;53.596;9.960;2023-05-15T00:34:47;7.37;;;6.50;;
14342;SDS011;7255;53.596;9.960;2023-05-15T00:37:13;6.70;;;6.03;;
14342;SDS011;7255;53.596;9.960;2023-05-15T00:39:40;6.45;;;5.95;;
14342;SDS011;7255;53.596;9.960;2023-05-15T00:42:06;8.93;;;6.57;;
14342;SDS011;7255;53.596;9.960;2023-05-15T00:44:35;6.50;;;5.93;;
14342;SDS011;7255;53.596;9.960;2023-05-15T00:47:03;6.95;;;6.20;;
14342;SDS011;7255;53.596;9.960;2023-05-15T00:49:31;6.55;;;5.95;;
14342;SDS011;7255;53.596;9.960;2023-05-15T00:52:00;7.62;;;6.93;;
14342;SDS011;7255;53.596;9.960;2023-05-15T00:54:27;7.03;;;6.33;;
14342;SDS011;7255;53.596;9.960;2023-05-15T00:56:54;7.05;;;6.20;;
14342;SDS011;7255;53.596;9.960;2023-05-15T00:59:21;6.83;;;6.13;;
14342;SDS011;7255;53.596;9.960;2023-05-15T01:01:51;7.45;;;6.60;;
14342;SDS011;7255;53.596;9.960;2023-05-15T01:04:17;7.50;;;6.75;;
14342;SDS011;7255;53.596;9.960;2023-05-15T01:06:44;7.72;;;7.03;;
14342;SDS011;7255;53.596;9.960;2023-05-15T01:09:10;8.32;;;7.28;;
14342;SDS011;7255;53.596;9.960;2023-05-15T01:11:39;7.68;;;6.93;;
14342;SDS011;7255;53.596;9.960;2023-05-15T01:14:07;7.68;;;6.90;;
14342;SDS011;7255;53.596;9.960;2023-05-15T01:16:34;8.90;;;7.40;;
14342;SDS011;7255;53.596;9.960;2023-05-15T01:19:02;7.28;;;6.57;;
14342;SDS011;7255;53.596;9.960;2023-05-15T01:21:35;7.82;;;7.10;;
14342;SDS011;7255;53.596;9.960;2023-05-15T01:24:25;7.72;;;6.78;;
14342;SDS011;7255;53.596;9.960;2023-05-15T01:30:02;7.35;;;6.65;;
14342;SDS011;7255;53.596;9.960;2023-05-15T01:32:35;7.60;;;6.90;;
14342;SDS011;7255;53.596;9.960;2023-05-15T01:35:09;7.78;;;7.07;;
14342;SDS011;7255;53.596;9.960;2023-05-15T01:37:39;8.15;;;6.93;;
14342;SDS011;7255;53.596;9.960;2023-05-15T01:40:10;7.37;;;6.68;;
14342;SDS011;7255;53.596;9.960;2023-05-15T01:42:43;8.57;;;7.77;;
14342;SDS011;7255;53.596;9.960;2023-05-15T01:45:18;7.97;;;7.20;;
14342;SDS011;7255;53.596;9.960;2023-05-15T01:47:48;7.77;;;6.97;;
14342;SDS011;7255;53.596;9.960;2023-05-15T01:50:16;8.05;;;7.25;;
14342;SDS011;7255;53.596;9.960;2023-05-15T01:52:46;7.95;;;7.15;;
14342;SDS011;7255;53.596;9.960;2023-05-15T01:55:14;7.80;;;7.10;;
14342;SDS011;7255;53.596;9.960;2023-05-15T01:57:42;9.30;;;6.90;;
14342;SDS011;7255;53.596;9.960;2023-05-15T02:00:12;9.02;;;7.43;;
14342;SDS011;7255;53.596;9.960;2023-05-15T02:02:39;7.87;;;7.07;;
14342;SDS011;7255;53.596;9.960;2023-05-15T02:05:06;9.23;;;7.32;;
14342;SDS011;7255;53.596;9.960;2023-05-15T02:07:35;8.20;;;7.40;;
14342;SDS011;7255;53.596;9.960;2023-05-15T02:10:02;8.18;;;7.35;;
14342;SDS011;7255;53.596;9.960;2023-05-15T02:12:30;8.48;;;7.68;;
14342;SDS011;7255;53.596;9.960;2023-05-15T02:14:59;8.68;;;7.85;;
14342;SDS011;7255;53.596;9.960;2023-05-15T02:17:28;8.77;;;7.85;;
14342;SDS011;7255;53.596;9.960;2023-05-15T02:19:55;8.50;;;7.55;;
14342;SDS011;7255;53.596;9.960;2023-05-15T02:22:21;7.77;;;7.03;;
14342;SDS011;7255;53.596;9.960;2023-05-15T02:24:47;8.45;;;7.57;;
14342;SDS011;7255;53.596;9.960;2023-05-15T02:27:16;8.95;;;8.07;;
14342;SDS011;7255;53.596;9.960;2023-05-15T02:29:49;9.13;;;8.23;;
14342;SDS011;7255;53.596;9.960;2023-05-15T02:32:28;8.52;;;7.62;;
14342;SDS011;7255;53.596;9.960;2023-05-15T02:35:01;8.65;;;7.75;;
14342;SDS011;7255;53.596;9.960;2023-05-15T02:37:35;9.13;;;8.23;;
14342;SDS011;7255;53.596;9.960;2023-05-15T02:40:05;12.48;;;8.30;;
14342;SDS011;7255;53.596;9.960;2023-05-15T02:42:35;9.93;;;8.20;;
14342;SDS011;7255;53.596;9.960;2023-05-15T02:45:04;9.00;;;8.20;;
14342;SDS011;7255;53.596;9.960;2023-05-15T02:47:34;9.10;;;8.20;;
14342;SDS011;7255;53.596;9.960;2023-05-15T02:50:02;8.98;;;8.13;;
14342;SDS011;7255;53.596;9.960;2023-05-15T02:52:30;9.38;;;8.40;;
14342;SDS011;7255;53.596;9.960;2023-05-15T02:54:58;8.75;;;7.85;;
14342;SDS011;7255;53.596;9.960;2023-05-15T02:57:24;9.30;;;8.40;;
14342;SDS011;7255;53.596;9.960;2023-05-15T02:59:51;9.93;;;8.93;;
14342;SDS011;7255;53.596;9.960;2023-05-15T03:02:18;9.65;;;8.65;;
14342;SDS011;7255;53.596;9.960;2023-05-15T03:04:45;9.43;;;8.45;;
14342;SDS011;7255;53.596;9.960;2023-05-15T03:07:12;9.43;;;8.52;;
14342;SDS011;7255;53.596;9.960;2023-05-15T03:09:39;9.33;;;8.43;;
14342;SDS011;7255;53.596;9.960;2023-05-15T03:12:05;9.55;;;8.48;;
14342;SDS011;7255;53.596;9.960;2023-05-15T03:14:33;9.77;;;8.88;;
14342;SDS011;7255;53.596;9.960;2023-05-15T03:16:59;10.05;;;9.05;;
14342;SDS011;7255;53.596;9.960;2023-05-15T03:19:25;9.70;;;8.40;;
14342;SDS011;7255;53.596;9.960;2023-05-15T03:21:53;9.48;;;8.43;;
14342;SDS011;7255;53.596;9.960;2023-05-15T03:24:19;9.73;;;8.70;;
14342;SDS011;7255;53.596;9.960;2023-05-15T03:26:46;9.57;;;8.57;;
14342;SDS011;7255;53.596;9.960;2023-05-15T03:29:12;10.73;;;8.80;;
14342;SDS011;7255;53.596;9.960;2023-05-15T03:31:38;9.90;;;8.82;;
14342;SDS011;7255;53.596;9.960;2023-05-15T03:34:05;9.52;;;8.52;;
14342;SDS011;7255;53.596;9.960;2023-05-15T03:36:31;9.83;;;8.83;;
14342;SDS011;7255;53.596;9.960;2023-05-15T03:38:59;10.17;;;8.50;;
14342;SDS011;7255;53.596;9.960;2023-05-15T03:41:25;9.68;;;8.43;;
14342;SDS011;7255;53.596;9.960;2023-05-15T03:43:52;10.93;;;8.90;;
14342;SDS011;7255;53.596;9.960;2023-05-15T03:46:19;9.70;;;8.73;;
14342;SDS011;7255;53.596;9.960;2023-05-15T03:48:45;9.37;;;8.07;;
14342;SDS011;7255;53.596;9.960;2023-05-15T03:51:11;10.18;;;8.50;;
14342;SDS011;7255;53.596;9.960;2023-05-15T03:53:38;9.30;;;8.32;;
14342;SDS011;7255;53.596;9.960;2023-05-15T03:56:05;9.75;;;8.75;;
14342;SDS011;7255;53.596;9.960;2023-05-15T03:58:32;10.10;;;9.13;;
14342;SDS011;7255;53.596;9.960;2023-05-15T04:00:58;10.48;;;9.00;;
14342;SDS011;7255;53.596;9.960;2023-05-15T04:03:24;10.48;;;9.48;;
14342;SDS011;7255;53.596;9.960;2023-05-15T04:05:51;10.70;;;9.25;;
14342;SDS011;7255;53.596;9.960;2023-05-15T04:08:17;9.80;;;8.80;;
14342;SDS011;7255;53.596;9.960;2023-05-15T04:10:43;10.57;;;9.15;;
14342;SDS011;7255;53.596;9.960;2023-05-15T04:13:11;10.00;;;8.73;;
14342;SDS011;7255;53.596;9.960;2023-05-15T04:15:39;9.02;;;8.18;;
14342;SDS011;7255;53.596;9.960;2023-05-15T04:18:05;11.00;;;9.15;;
14342;SDS011;7255;53.596;9.960;2023-05-15T04:20:32;10.20;;;9.15;;
14342;SDS011;7255;53.596;9.960;2023-05-15T04:22:58;9.93;;;8.90;;
14342;SDS011;7255;53.596;9.960;2023-05-15T04:25:25;9.30;;;8.37;;
14342;SDS011;7255;53.596;9.960;2023-05-15T04:27:52;10.30;;;9.20;;
14342;SDS011;7255;53.596;9.960;2023-05-15T04:30:19;9.70;;;8.77;;
14342;SDS011;7255;53.596;9.960;2023-05-15T04:32:46;9.60;;;8.60;;
14342;SDS011;7255;53.596;9.960;2023-05-15T04:35:12;9.90;;;8.73;;
14342;SDS011;7255;53.596;9.960;2023-05-15T04:37:39;10.07;;;9.07;;
14342;SDS011;7255;53.596;9.960;2023-05-15T04:40:07;12.13;;;9.23;;
14342;SDS011;7255;53.596;9.960;2023-05-15T04:42:35;10.10;;;8.82;;
14342;SDS011;7255;53.596;9.960;2023-05-15T04:45:01;10.55;;;9.45;;
14342;SDS011;7255;53.596;9.960;2023-05-15T04:47:29;10.95;;;9.02;;
14342;SDS011;7255;53.596;9.960;2023-05-15T04:49:56;9.82;;;8.85;;
14342;SDS011;7255;53.596;9.960;2023-05-15T04:52:22;9.85;;;8.88;;
14342;SDS011;7255;53.596;9.960;2023-05-15T04:54:49;10.30;;;9.23;;
14342;SDS011;7255;53.596;9.960;2023-05-15T04:57:17;10.40;;;9.27;;
14342;SDS011;7255;53.596;9.960;2023-05-15T04:59:43;13.23;;;9.75;;
14342;SDS011;7255;53.596;9.960;2023-05-15T05:02:09;11.20;;;9.32;;
14342;SDS011;7255;53.596;9.960;2023-05-15T05:04:37;9.80;;;8.80;;
14342;SDS011;7255;53.596;9.960;2023-05-15T05:07:04;10.48;;;9.32;;
14342;SDS011;7255;53.596;9.960;2023-05-15T05:09:30;9.82;;;8.75;;
14342;SDS011;7255;53.596;9.960;2023-05-15T05:11:57;11.68;;;9.13;;
14342;SDS011;7255;53.596;9.960;2023-05-15T05:14:25;10.82;;;9.00;;
14342;SDS011;7255;53.596;9.960;2023-05-15T05:16:51;10.25;;;9.23;;
14342;SDS011;7255;53.596;9.960;2023-05-15T05:19:18;10.23;;;9.15;;
14342;SDS011;7255;53.596;9.960;2023-05-15T05:21:45;10.07;;;9.10;;
14342;SDS011;7255;53.596;9.960;2023-05-15T05:24:11;10.13;;;8.95;;
14342;SDS011;7255;53.596;9.960;2023-05-15T05:26:38;10.73;;;9.55;;
14342;SDS011;7255;53.596;9.960;2023-05-15T05:29:04;9.77;;;8.77;;
14342;SDS011;7255;53.596;9.960;2023-05-15T05:31:30;9.50;;;8.45;;
14342;SDS011;7255;53.596;9.960;2023-05-15T05:33:57;9.90;;;8.90;;
14342;SDS011;7255;53.596;9.960;2023-05-15T05:36:23;10.73;;;8.85;;
14342;SDS011;7255;53.596;9.960;2023-05-15T05:38:51;11.17;;;9.40;;
14342;SDS011;7255;53.596;9.960;2023-05-15T05:41:18;10.52;;;9.50;;
14342;SDS011;7255;53.596;9.960;2023-05-15T05:43:47;9.77;;;8.55;;
14342;SDS011;7255;53.596;9.960;2023-05-15T05:46:13;9.50;;;8.57;;
14342;SDS011;7255;53.596;9.960;2023-05-15T05:48:40;9.93;;;8.95;;
14342;SDS011;7255;53.596;9.960;2023-05-15T05:51:06;9.77;;;8.87;;
14342;SDS011;7255;53.596;9.960;2023-05-15T05:53:32;11.15;;;9.32;;
14342;SDS011;7255;53.596;9.960;2023-05-15T05:56:00;9.85;;;8.45;;
14342;SDS011;7255;53.596;9.960;2023-05-15T05:58:27;9.83;;;8.83;;
14342;SDS011;7255;53.596;9.960;2023-05-15T06:00:53;9.03;;;8.13;;
14342;SDS011;7255;53.596;9.960;2023-05-15T06:03:20;9.65;;;8.23;;
14342;SDS011;7255;53.596;9.960;2023-05-15T06:05:47;8.77;;;7.43;;
14342;SDS011;7255;53.596;9.960;2023-05-15T06:08:14;9.07;;;7.50;;
14342;SDS011;7255;53.596;9.960;2023-05-15T06:10:40;7.95;;;7.03;;
14342;SDS011;7255;53.596;9.960;2023-05-15T06:13:08;8.05;;;7.22;;
14342;SDS011;7255;53.596;9.960;2023-05-15T06:15:35;7.72;;;6.90;;
14342;SDS011;7255;53.596;9.960;2023-05-15T06:18:01;7.75;;;6.90;;
14342;SDS011;7255;53.596;9.960;2023-05-15T06:20:28;7.95;;;7.10;;
14342;SDS011;7255;53.596;9.960;2023-05-15T06:22:54;7.28;;;6.50;;
14342;SDS011;7255;53.596;9.960;2023-05-15T06:25:21;9.13;;;6.35;;
14342;SDS011;7255;53.596;9.960;2023-05-15T06:27:47;8.05;;;6.30;;
14342;SDS011;7255;53.596;9.960;2023-05-15T06:30:15;7.53;;;5.70;;
14342;SDS011;7255;53.596;9.960;2023-05-15T06:32:41;7.15;;;6.45;;
14342;SDS011;7255;53.596;9.960;2023-05-15T06:35:08;6.05;;;5.37;;
14342;SDS011;7255;53.596;9.960;2023-05-15T06:37:35;6.65;;;6.05;;
14342;SDS011;7255;53.596;9.960;2023-05-15T06:40:02;6.12;;;5.53;;
14342;SDS011;7255;53.596;9.960;2023-05-15T06:42:28;7.68;;;5.65;;
14342;SDS011;7255;53.596;9.960;2023-05-15T06:44:55;6.03;;;5.45;;
14342;SDS011;7255;53.596;9.960;2023-05-15T06:47:22;5.55;;;4.97;;
14342;SDS011;7255;53.596;9.960;2023-05-15T06:49:49;5.50;;;4.97;;
14342;SDS011;7255;53.596;9.960;2023-05-15T06:52:15;4.70;;;4.30;;
14342;SDS011;7255;53.596;9.960;2023-05-15T06:54:41;4.37;;;3.97;;
14342;SDS011;7255;53.596;9.960;2023-05-15T06:57:08;4.72;;;3.90;;
14342;SDS011;7255;53.596;9.960;2023-05-15T06:59:35;3.90;;;3.58;;
14342;SDS011;7255;53.596;9.960;2023-05-15T07:02:01;4.22;;;3.75;;
14342;SDS011;7255;53.596;9.960;2023-05-15T07:04:29;4.43;;;3.75;;
14342;SDS011;7255;53.596;9.960;2023-05-15T07:06:55;4.50;;;3.80;;
14342;SDS011;7255;53.596;9.960;2023-05-15T07:09:22;3.87;;;3.12;;
14342;SDS011;7255;53.596;9.960;2023-05-15T07:11:49;3.57;;;3.00;;
14342;SDS011;7255;53.596;9.960;2023-05-15T07:14:15;3.60;;;3.00;;
14342;SDS011;7255;53.596;9.960;2023-05-15T07:16:41;3.20;;;2.90;;
14342;SDS011;7255;53.596;9.960;2023-05-15T07:19:08;3.70;;;3.30;;
14342;SDS011;7255;53.596;9.960;2023-05-15T07:21:35;4.72;;;3.35;;
14342;SDS011;7255;53.596;9.960;2023-05-15T07:24:02;3.78;;;2.95;;
14342;SDS011;7255;53.596;9.960;2023-05-15T07:26:29;4.95;;;3.58;;
14342;SDS011;7255;53.596;9.960;2023-05-15T07:28:56;4.47;;;3.72;;
14342;SDS011;7255;53.596;9.960;2023-05-15T07:31:22;3.80;;;3.35;;
14342;SDS011;7255;53.596;9.960;2023-05-15T07:33:49;4.62;;;3.85;;
14342;SDS011;7255;53.596;9.960;2023-05-15T07:36:15;3.50;;;2.80;;
14342;SDS011;7255;53.596;9.960;2023-05-15T07:38:43;3.78;;;2.90;;
14342;SDS011;7255;53.596;9.960;2023-05-15T07:41:09;3.35;;;3.05;;
14342;SDS011;7255;53.596;9.960;2023-05-15T07:43:35;3.05;;;2.75;;
14342;SDS011;7255;53.596;9.960;2023-05-15T07:46:02;3.83;;;2.50;;
14342;SDS011;7255;53.596;9.960;2023-05-15T07:48:28;4.55;;;3.08;;
14342;SDS011;7255;53.596;9.960;2023-05-15T07:50:54;2.90;;;2.70;;
14342;SDS011;7255;53.596;9.960;2023-05-15T07:53:21;3.12;;;2.78;;
14342;SDS011;7255;53.596;9.960;2023-05-15T07:55:48;3.95;;;2.70;;
14342;SDS011;7255;53.596;9.960;2023-05-15T07:58:15;2.63;;;2.37;;
14342;SDS011;7255;53.596;9.960;2023-05-15T08:00:41;3.05;;;2.55;;
14342;SDS011;7255;53.596;9.960;2023-05-15T08:03:08;2.53;;;2.30;;
14342;SDS011;7255;53.596;9.960;2023-05-15T08:05:35;2.62;;;2.42;;
14342;SDS011;7255;53.596;9.960;2023-05-15T08:08:02;4.28;;;2.35;;
14342;SDS011;7255;53.596;9.960;2023-05-15T08:10:28;3.67;;;2.20;;
14342;SDS011;7255;53.596;9.960;2023-05-15T08:12:56;2.55;;;2.35;;
14342;SDS011;7255;53.596;9.960;2023-05-15T08:15:22;3.37;;;2.50;;
14342;SDS011;7255;53.596;9.960;2023-05-15T08:17:48;2.53;;;2.33;;
14342;SDS011;7255;53.596;9.960;2023-05-15T08:20:15;3.47;;;3.17;;
14342;SDS011;7255;53.596;9.960;2023-05-15T08:22:42;2.80;;;2.60;;
14342;SDS011;7255;53.596;9.960;2023-05-15T08:25:08;2.60;;;2.40;;
14342;SDS011;7255;53.596;9.960;2023-05-15T08:27:35;2.97;;;2.67;;
14342;SDS011;7255;53.596;9.960;2023-05-15T08:30:03;2.45;;;2.20;;
14342;SDS011;7255;53.596;9.960;2023-05-15T08:32:30;3.17;;;2.40;;
14342;SDS011;7255;53.596;9.960;2023-05-15T08:34:57;2.60;;;2.40;;
14342;SDS011;7255;53.596;9.960;2023-05-15T08:37:23;4.60;;;2.30;;
14342;SDS011;7255;53.596;9.960;2023-05-15T08:39:49;3.30;;;2.17;;
14342;SDS011;7255;53.596;9.960;2023-05-15T08:42:18;2.45;;;2.25;;
14342;SDS011;7255;53.596;9.960;2023-05-15T08:44:49;4.55;;;2.00;;
14342;SDS011;7255;53.596;9.960;2023-05-15T08:47:16;2.58;;;2.20;;
14342;SDS011;7255;53.596;9.960;2023-05-15T08:49:46;3.42;;;2.40;;
14342;SDS011;7255;53.596;9.960;2023-05-15T08:52:21;2.53;;;2.33;;
14342;SDS011;7255;53.596;9.960;2023-05-15T08:54:48;2.85;;;2.65;;
14342;SDS011;7255;53.596;9.960;2023-05-15T08:57:15;2.53;;;2.33;;
14342;SDS011;7255;53.596;9.960;2023-05-15T08:59:42;2.40;;;2.20;;
14342;SDS011;7255;53.596;9.960;2023-05-15T09:02:08;3.28;;;2.70;;
14342;SDS011;7255;53.596;9.960;2023-05-15T09:04:36;2.92;;;2.30;;
14342;SDS011;7255;53.596;9.960;2023-05-15T09:07:02;2.72;;;2.30;;
14342;SDS011;7255;53.596;9.960;2023-05-15T09:09:30;2.62;;;2.42;;
14342;SDS011;7255;53.596;9.960;2023-05-15T09:11:58;2.40;;;2.20;;
14342;SDS011;7255;53.596;9.960;2023-05-15T09:14:25;3.50;;;2.50;;
14342;SDS011;7255;53.596;9.960;2023-05-15T09:16:52;2.47;;;2.28;;
14342;SDS011;7255;53.596;9.960;2023-05-15T09:19:18;2.90;;;2.60;;
14342;SDS011;7255;53.596;9.960;2023-05-15T09:21:47;2.40;;;2.20;;
14342;SDS011;7255;53.596;9.960;2023-05-15T09:24:15;3.80;;;2.40;;
14342;SDS011;7255;53.596;9.960;2023-05-15T09:26:42;2.40;;;2.20;;
14342;SDS011;7255;53.596;9.960;2023-05-15T09:29:09;3.03;;;2.28;;
14342;SDS011;7255;53.596;9.960;2023-05-15T09:31:35;3.20;;;2.60;;
14342;SDS011;7255;53.596;9.960;2023-05-15T09:34:02;2.87;;;2.20;;
14342;SDS011;7255;53.596;9.960;2023-05-15T09:36:30;2.60;;;2.40;;
14342;SDS011;7255;53.596;9.960;2023-05-15T09:38:59;2.47;;;2.20;;
14342;SDS011;7255;53.596;9.960;2023-05-15T09:41:26;2.87;;;2.58;;
14342;SDS011;7255;53.596;9.960;2023-05-15T09:43:53;3.97;;;2.30;;
14342;SDS011;7255;53.596;9.960;2023-05-15T09:46:20;2.67;;;2.30;;
14342;SDS011;7255;53.596;9.960;2023-05-15T09:48:47;2.10;;;1.90;;
14342;SDS011;7255;53.596;9.960;2023-05-15T09:51:13;3.20;;;2.00;;
14342;SDS011;7255;53.596;9.960;2023-05-15T09:53:41;2.80;;;1.90;;
14342;SDS011;7255;53.596;9.960;2023-05-15T09:56:09;3.37;;;2.00;;
14342;SDS011;7255;53.596;9.960;2023-05-15T09:58:36;2.55;;;1.92;;
14342;SDS011;7255;53.596;9.960;2023-05-15T10:01:02;2.37;;;2.00;;
14342;SDS011;7255;53.596;9.960;2023-05-15T10:03:36;2.10;;;1.95;;
14342;SDS011;7255;53.596;9.960;2023-05-15T10:06:02;2.25;;;2.00;;
14342;SDS011;7255;53.596;9.960;2023-05-15T10:08:29;2.67;;;1.80;;
14342;SDS011;7255;53.596;9.960;2023-05-15T10:10:57;2.47;;;1.90;;
14342;SDS011;7255;53.596;9.960;2023-05-15T10:13:26;2.03;;;1.85;;
14342;SDS011;7255;53.596;9.960;2023-05-15T10:15:56;1.92;;;1.70;;
14342;SDS011;7255;53.596;9.960;2023-05-15T10:18:23;2.15;;;2.00;;
14342;SDS011;7255;53.596;9.960;2023-05-15T10:20:53;2.33;;;1.90;;
14342;SDS011;7255;53.596;9.960;2023-05-15T10:23:21;2.65;;;1.95;;
14342;SDS011;7255;53.596;9.960;2023-05-15T10:25:49;4.65;;;1.87;;
14342;SDS011;7255;53.596;9.960;2023-05-15T10:28:20;2.87;;;2.05;;
14342;SDS011;7255;53.596;9.960;2023-05-15T10:30:49;2.30;;;2.10;;
14342;SDS011;7255;53.596;9.960;2023-05-15T10:33:17;2.03;;;1.70;;
14342;SDS011;7255;53.596;9.960;2023-05-15T10:35:44;2.83;;;2.00;;
14342;SDS011;7255;53.596;9.960;2023-05-15T10:38:11;2.22;;;2.00;;
14342;SDS011;7255;53.596;9.960;2023-05-15T10:40:38;3.03;;;1.98;;
14342;SDS011;7255;53.596;9.960;2023-05-15T10:43:05;2.20;;;1.90;;
14342;SDS011;7255;53.596;9.960;2023-05-15T10:45:35;2.72;;;1.87;;
14342;SDS011;7255;53.596;9.960;2023-05-15T10:48:03;2.80;;;2.30;;
14342;SDS011;7255;53.596;9.960;2023-05-15T10:50:31;2.73;;;2.10;;
14342;SDS011;7255;53.596;9.960;2023-05-15T10:52:58;3.70;;;2.30;;
14342;SDS011;7255;53.596;9.960;2023-05-15T10:55:25;4.22;;;2.37;;
14342;SDS011;7255;53.596;9.960;2023-05-15T10:57:51;2.77;;;2.20;;
14342;SDS011;7255;53.596;9.960;2023-05-15T11:00:25;3.03;;;2.30;;
14342;SDS011;7255;53.596;9.960;2023-05-15T11:02:52;2.40;;;2.20;;
14342;SDS011;7255;53.596;9.960;2023-05-15T11:05:22;2.95;;;2.10;;
14342;SDS011;7255;53.596;9.960;2023-05-15T11:10:51;2.15;;;2.00;;
14342;SDS011;7255;53.596;9.960;2023-05-15T11:13:17;2.40;;;2.00;;
14342;SDS011;7255;53.596;9.960;2023-05-15T11:15:44;2.28;;;2.05;;
14342;SDS011;7255;53.596;9.960;2023-05-15T11:18:12;2.15;;;2.05;;
14342;SDS011;7255;53.596;9.960;2023-05-15T11:20:40;2.20;;;2.00;;
14342;SDS011;7255;53.596;9.960;2023-05-15T11:23:08;2.45;;;1.80;;
14342;SDS011;7255;53.596;9.960;2023-05-15T11:25:35;2.30;;;2.10;;
14342;SDS011;7255;53.596;9.960;2023-05-15T11:28:02;2.60;;;2.20;;
14342;SDS011;7255;53.596;9.960;2023-05-15T11:30:36;2.03;;;1.90;;
14342;SDS011;7255;53.596;9.960;2023-05-15T11:33:03;2.72;;;1.80;;
14342;SDS011;7255;53.596;9.960;2023-05-15T11:35:33;6.35;;;2.33;;
14342;SDS011;7255;53.596;9.960;2023-05-15T11:38:04;2.12;;;1.80;;
14342;SDS011;7255;53.596;9.960;2023-05-15T11:40:42;5.20;;;2.63;;
14342;SDS011;7255;53.596;9.960;2023-05-15T11:43:15;8.23;;;2.75;;
14342;SDS011;7255;53.596;9.960;2023-05-15T11:45:44;5.35;;;2.00;;
14342;SDS011;7255;53.596;9.960;2023-05-15T11:48:12;2.65;;;1.98;;
14342;SDS011;7255;53.596;9.960;2023-05-15T11:50:40;2.30;;;2.10;;
14342;SDS011;7255;53.596;9.960;2023-05-15T11:53:09;3.90;;;1.90;;
14342;SDS011;7255;53.596;9.960;2023-05-15T11:55:36;3.33;;;2.12;;
14342;SDS011;7255;53.596;9.960;2023-05-15T11:58:09;2.80;;;2.45;;
14342;SDS011;7255;53.596;9.960;2023-05-15T12:00:36;1.92;;;1.75;;
14342;SDS011;7255;53.596;9.960;2023-05-15T12:03:02;2.42;;;1.55;;
14342;SDS011;7255;53.596;9.960;2023-05-15T12:05:29;1.90;;;1.80;;
14342;SDS011;7255;53.596;9.960;2023-05-15T12:07:55;2.50;;;2.10;;
14342;SDS011;7255;53.596;9.960;2023-05-15T12:10:24;2.62;;;1.90;;
14342;SDS011;7255;53.596;9.960;2023-05-15T12:12:50;2.70;;;2.05;;
14342;SDS011;7255;53.596;9.960;2023-05-15T12:15:16;3.22;;;2.00;;
14342;SDS011;7255;53.596;9.960;2023-05-15T12:17:43;2.78;;;2.10;;
14342;SDS011;7255;53.596;9.960;2023-05-15T12:20:11;3.00;;;2.20;;
14342;SDS011;7255;53.596;9.960;2023-05-15T12:22:41;2.17;;;1.98;;
14342;SDS011;7255;53.596;9.960;2023-05-15T12:25:08;2.72;;;2.08;;
14342;SDS011;7255;53.596;9.960;2023-05-15T12:27:37;3.15;;;2.10;;
14342;SDS011;7255;53.596;9.960;2023-05-15T12:30:05;3.10;;;2.80;;
14342;SDS011;7255;53.596;9.960;2023-05-15T12:32:33;3.90;;;3.50;;
14342;SDS011;7255;53.596;9.960;2023-05-15T12:35:00;3.85;;;3.47;;
14342;SDS011;7255;53.596;9.960;2023-05-15T12:37:29;4.47;;;3.08;;
14342;SDS011;7255;53.596;9.960;2023-05-15T12:39:58;3.40;;;3.08;;
14342;SDS011;7255;53.596;9.960;2023-05-15T12:42:25;3.85;;;3.45;;
14342;SDS011;7255;53.596;9.960;2023-05-15T12:44:54;3.77;;;3.37;;
14342;SDS011;7255;53.596;9.960;2023-05-15T12:47:21;5.75;;;3.80;;
14342;SDS011;7255;53.596;9.960;2023-05-15T12:49:48;5.73;;;4.10;;
14342;SDS011;7255;53.596;9.960;2023-05-15T12:52:15;5.67;;;4.73;;
14342;SDS011;7255;53.596;9.960;2023-05-15T12:54:42;5.67;;;4.30;;
14342;SDS011;7255;53.596;9.960;2023-05-15T12:57:09;4.50;;;4.10;;
14342;SDS011;7255;53.596;9.960;2023-05-15T12:59:36;5.03;;;4.53;;
14342;SDS011;7255;53.596;9.960;2023-05-15T13:02:05;5.60;;;4.87;;
14342;SDS011;7255;53.596;9.960;2023-05-15T13:04:34;5.87;;;5.05;;
14342;SDS011;7255;53.596;9.960;2023-05-15T13:07:01;6.15;;;5.50;;
14342;SDS011;7255;53.596;9.960;2023-05-15T13:09:28;5.82;;;5.10;;
14342;SDS011;7255;53.596;9.960;2023-05-15T13:11:55;6.07;;;5.47;;
14342;SDS011;7255;53.596;9.960;2023-05-15T13:14:21;6.47;;;5.15;;
14342;SDS011;7255;53.596;9.960;2023-05-15T13:16:51;6.18;;;5.68;;
14342;SDS011;7255;53.596;9.960;2023-05-15T13:19:19;6.93;;;6.18;;
14342;SDS011;7255;53.596;9.960;2023-05-15T13:21:45;7.93;;;6.30;;
14342;SDS011;7255;53.596;9.960;2023-05-15T13:24:14;8.55;;;7.65;;
14342;SDS011;7255;53.596;9.960;2023-05-15T13:26:41;9.05;;;7.47;;
14342;SDS011;7255;53.596;9.960;2023-05-15T13:29:07;9.27;;;7.05;;
14342;SDS011;7255;53.596;9.960;2023-05-15T13:31:33;8.18;;;6.53;;
14342;SDS011;7255;53.596;9.960;2023-05-15T13:34:00;7.95;;;7.03;;
14342;SDS011;7255;53.596;9.960;2023-05-15T13:36:27;7.65;;;6.93;;
14342;SDS011;7255;53.596;9.960;2023-05-15T13:38:54;9.43;;;7.53;;
14342;SDS011;7255;53.596;9.960;2023-05-15T13:41:20;8.82;;;7.80;;
14342;SDS011;7255;53.596;9.960;2023-05-15T13:43:46;8.82;;;7.55;;
14342;SDS011;7255;53.596;9.960;2023-05-15T13:46:13;8.30;;;7.50;;
14342;SDS011;7255;53.596;9.960;2023-05-15T13:48:40;9.07;;;8.20;;
14342;SDS011;7255;53.596;9.960;2023-05-15T13:51:06;7.57;;;6.80;;
14342;SDS011;7255;53.596;9.960;2023-05-15T13:53:34;7.95;;;6.57;;
14342;SDS011;7255;53.596;9.960;2023-05-15T13:56:00;7.90;;;6.25;;
14342;SDS011;7255;53.596;9.960;2023-05-15T13:58:27;8.10;;;6.60;;
14342;SDS011;7255;53.596;9.960;2023-05-15T14:00:53;9.48;;;8.00;;
14342;SDS011;7255;53.596;9.960;2023-05-15T14:03:20;9.93;;;8.07;;
14342;SDS011;7255;53.596;9.960;2023-05-15T14:05:46;10.13;;;8.50;;
14342;SDS011;7255;53.596;9.960;2023-05-15T14:08:12;9.05;;;8.10;;
14342;SDS011;7255;53.596;9.960;2023-05-15T14:10:41;9.20;;;8.13;;
14342;SDS011;7255;53.596;9.960;2023-05-15T14:13:07;10.55;;;8.70;;
14342;SDS011;7255;53.596;9.960;2023-05-15T14:15:34;9.00;;;8.10;;
14342;SDS011;7255;53.596;9.960;2023-05-15T14:18:00;10.02;;;8.27;;
14342;SDS011;7255;53.596;9.960;2023-05-15T14:20:27;10.38;;;8.55;;
14342;SDS011;7255;53.596;9.960;2023-05-15T14:22:53;9.07;;;7.65;;
14342;SDS011;7255;53.596;9.960;2023-05-15T14:25:20;9.15;;;8.23;;
14342;SDS011;7255;53.596;9.960;2023-05-15T14:27:47;11.12;;;8.70;;
14342;SDS011;7255;53.596;9.960;2023-05-15T14:30:14;9.80;;;8.38;;
14342;SDS011;7255;53.596;9.960;2023-05-15T14:32:41;10.20;;;7.75;;
14342;SDS011;7255;53.596;9.960;2023-05-15T14:35:07;9.98;;;8.98;;
14342;SDS011;7255;53.596;9.960;2023-05-15T14:37:34;9.33;;;8.30;;
14342;SDS011;7255;53.596;9.960;2023-05-15T14:40:01;8.60;;;7.70;;
14342;SDS011;7255;53.596;9.960;2023-05-15T14:42:28;10.03;;;8.93;;
14342;SDS011;7255;53.596;9.960;2023-05-15T14:44:56;9.43;;;8.30;;
14342;SDS011;7255;53.596;9.960;2023-05-15T14:47:22;8.85;;;7.93;;
14342;SDS011;7255;53.596;9.960;2023-05-15T14:49:51;9.35;;;8.25;;
14342;SDS011;7255;53.596;9.960;2023-05-15T14:52:18;8.70;;;7.68;;
14342;SDS011;7255;53.596;9.960;2023-05-15T14:54:44;9.10;;;8.00;;
14342;SDS011;7255;53.596;9.960;2023-05-15T14:57:10;8.25;;;7.37;;
14342;SDS011;7255;53.596;9.960;2023-05-15T14:59:37;9.00;;;7.93;;
14342;SDS011;7255;53.596;9.960;2023-05-15T15:02:04;9.20;;;8.27;;
14342;SDS011;7255;53.596;9.960;2023-05-15T15:04:30;10.27;;;8.57;;
14342;SDS011;7255;53.596;9.960;2023-05-15T15:06:58;9.23;;;8.20;;